sensor_id;sensor_type;location;lat;lon;timestamp;temperature;humidity
212;DHT22;16228;48.800;9.002;2023-07-31T00:00:06;14.90;96.90
212;DHT22;16228;48.800;9.002;2023-07-31T00:02:35;14.90;96.90
212;DHT22;16228;48.800;9.002;2023-07-31T00:05:02;14.90;96.90
212;DHT22;16228;48.800;9.002;2023-07-31T00:07:32;14.80;96.90
212;DHT22;16228;48.800;9.002;2023-07-31T00:09:59;14.70;96.90
212;DHT22;16228;48.800;9.002;2023-07-31T00:12:26;14.70;96.90
212;DHT22;16228;48.800;9.002;2023-07-31T00:14:53;14.70;96.90
212;DHT22;16228;48.800;9.002;2023-07-31T00:17:20;14.70;96.90
212;DHT22;16228;48.800;9.002;2023-07-31T00:19:47;14.60;96.90
212;DHT22;16228;48.800;9.002;2023-07-31T00:22:16;14.50;96.90
212;DHT22;16228;48.800;9.002;2023-07-31T00:24:44;14.50;96.90
212;DHT22;16228;48.800;9.002;2023-07-31T00:27:11;14.50;96.90
212;DHT22;16228;48.800;9.002;2023-07-31T00:29:38;14.50;96.90
212;DHT22;16228;48.800;9.002;2023-07-31T00:32:06;14.40;96.90
212;DHT22;16228;48.800;9.002;2023-07-31T00:34:33;14.40;96.90
212;DHT22;16228;48.800;9.002;2023-07-31T00:37:00;14.40;96.90
212;DHT22;16228;48.800;9.002;2023-07-31T00:39:27;14.30;96.90
212;DHT22;16228;48.800;9.002;2023-07-31T00:41:55;14.30;96.90
212;DHT22;16228;48.800;9.002;2023-07-31T00:44:22;14.30;96.90
212;DHT22;16228;48.800;9.002;2023-07-31T00:46:49;14.20;96.90
212;DHT22;16228;48.800;9.002;2023-07-31T00:49:17;14.20;96.90
212;DHT22;16228;48.800;9.002;2023-07-31T00:51:44;14.10;96.90
212;DHT22;16228;48.800;9.002;2023-07-31T00:54:11;14.10;96.90
212;DHT22;16228;48.800;9.002;2023-07-31T00:56:38;14.10;96.90
212;DHT22;16228;48.800;9.002;2023-07-31T00:59:08;14.10;96.90
212;DHT22;16228;48.800;9.002;2023-07-31T01:01:35;14.00;96.90
212;DHT22;16228;48.800;9.002;2023-07-31T01:04:03;14.00;96.90
212;DHT22;16228;48.800;9.002;2023-07-31T01:06:34;14.00;96.90
212;DHT22;16228;48.800;9.002;2023-07-31T01:09:09;14.00;96.90
212;DHT22;16228;48.800;9.002;2023-07-31T01:11:42;14.00;96.90
212;DHT22;16228;48.800;9.002;2023-07-31T01:14:11;14.00;96.90
212;DHT22;16228;48.800;9.002;2023-07-31T01:16:38;14.00;96.90
212;DHT22;16228;48.800;9.002;2023-07-31T01:19:06;14.00;96.90
212;DHT22;16228;48.800;9.002;2023-07-31T01:21:53;14.00;96.90
212;DHT22;16228;48.800;9.002;2023-07-31T01:24:29;13.90;96.90
212;DHT22;16228;48.800;9.002;2023-07-31T01:27:02;14.00;96.90
212;DHT22;16228;48.800;9.002;2023-07-31T01:29:37;13.90;96.90
212;DHT22;16228;48.800;9.002;2023-07-31T01:32:06;13.90;96.90
212;DHT22;16228;48.800;9.002;2023-07-31T01:34:35;13.90;96.90
212;DHT22;16228;48.800;9.002;2023-07-31T01:37:02;14.00;96.90
212;DHT22;16228;48.800;9.002;2023-07-31T01:39:29;14.00;96.90
212;DHT22;16228;48.800;9.002;2023-07-31T01:41:58;14.10;96.90
212;DHT22;16228;48.800;9.002;2023-07-31T01:44:25;14.10;96.90
212;DHT22;16228;48.800;9.002;2023-07-31T01:46:52;14.10;96.90
212;DHT22;16228;48.800;9.002;2023-07-31T01:49:19;14.20;96.90
212;DHT22;16228;48.800;9.002;2023-07-31T01:51:45;14.20;96.90
212;DHT22;16228;48.800;9.002;2023-07-31T01:54:12;14.10;96.90
212;DHT22;16228;48.800;9.002;2023-07-31T01:56:39;14.20;96.90
212;DHT22;16228;48.800;9.002;2023-07-31T01:59:08;14.20;96.90
212;DHT22;16228;48.800;9.002;2023-07-31T02:01:35;14.20;96.90
212;DHT22;16228;48.800;9.002;2023-07-31T02:04:02;14.10;96.90
212;DHT22;16228;48.800;9.002;2023-07-31T02:06:30;14.10;96.90
212;DHT22;16228;48.800;9.002;2023-07-31T02:08:57;14.10;96.90
212;DHT22;16228;48.800;9.002;2023-07-31T02:11:24;14.10;96.90
212;DHT22;16228;48.800;9.002;2023-07-31T02:13:51;14.10;96.90
212;DHT22;16228;48.800;9.002;2023-07-31T02:16:19;14.10;96.90
212;DHT22;16228;48.800;9.002;2023-07-31T02:18:46;14.10;96.90
212;DHT22;16228;48.800;9.002;2023-07-31T02:21:13;14.10;96.90
212;DHT22;16228;48.800;9.002;2023-07-31T02:23:40;14.10;96.90
212;DHT22;16228;48.800;9.002;2023-07-31T02:26:07;14.10;96.90
212;DHT22;16228;48.800;9.002;2023-07-31T02:28:34;14.10;96.90
212;DHT22;16228;48.800;9.002;2023-07-31T02:31:01;14.10;96.90
212;DHT22;16228;48.800;9.002;2023-07-31T02:33:29;14.10;96.90
212;DHT22;16228;48.800;9.002;2023-07-31T02:35:56;14.10;96.90
212;DHT22;16228;48.800;9.002;2023-07-31T02:38:23;14.10;96.90
212;DHT22;16228;48.800;9.002;2023-07-31T02:40:49;14.10;96.90
212;DHT22;16228;48.800;9.002;2023-07-31T02:43:16;14.00;96.90
212;DHT22;16228;48.800;9.002;2023-07-31T02:45:43;14.00;96.90
212;DHT22;16228;48.800;9.002;2023-07-31T02:48:10;14.00;96.90
212;DHT22;16228;48.800;9.002;2023-07-31T02:50:38;14.00;96.90
212;DHT22;16228;48.800;9.002;2023-07-31T02:53:05;14.00;96.90
212;DHT22;16228;48.800;9.002;2023-07-31T02:55:32;14.00;96.90
212;DHT22;16228;48.800;9.002;2023-07-31T02:57:59;14.00;96.90
212;DHT22;16228;48.800;9.002;2023-07-31T03:00:26;14.00;96.90
212;DHT22;16228;48.800;9.002;2023-07-31T03:02:54;13.90;96.90
212;DHT22;16228;48.800;9.002;2023-07-31T03:05:21;13.90;96.90
212;DHT22;16228;48.800;9.002;2023-07-31T03:07:50;13.90;96.90
212;DHT22;16228;48.800;9.002;2023-07-31T03:10:16;14.00;96.90
212;DHT22;16228;48.800;9.002;2023-07-31T03:12:46;14.00;96.90
212;DHT22;16228;48.800;9.002;2023-07-31T03:15:13;14.00;96.90
212;DHT22;16228;48.800;9.002;2023-07-31T03:17:40;14.10;96.90
212;DHT22;16228;48.800;9.002;2023-07-31T03:20:08;14.20;96.90
212;DHT22;16228;48.800;9.002;2023-07-31T03:22:35;14.20;96.90
212;DHT22;16228;48.800;9.002;2023-07-31T03:25:04;14.30;96.90
212;DHT22;16228;48.800;9.002;2023-07-31T03:27:31;14.40;96.90
212;DHT22;16228;48.800;9.002;2023-07-31T03:29:59;14.40;96.90
212;DHT22;16228;48.800;9.002;2023-07-31T03:32:26;14.40;96.90
212;DHT22;16228;48.800;9.002;2023-07-31T03:34:53;14.40;96.90
212;DHT22;16228;48.800;9.002;2023-07-31T03:37:20;14.30;96.90
212;DHT22;16228;48.800;9.002;2023-07-31T03:39:47;14.30;96.90
212;DHT22;16228;48.800;9.002;2023-07-31T03:42:15;14.30;96.90
212;DHT22;16228;48.800;9.002;2023-07-31T03:44:42;14.40;96.90
212;DHT22;16228;48.800;9.002;2023-07-31T03:47:09;14.40;96.90
212;DHT22;16228;48.800;9.002;2023-07-31T03:49:36;14.50;96.90
212;DHT22;16228;48.800;9.002;2023-07-31T03:52:04;14.50;96.90
212;DHT22;16228;48.800;9.002;2023-07-31T03:54:31;14.50;96.90
212;DHT22;16228;48.800;9.002;2023-07-31T03:56:58;14.60;96.90
212;DHT22;16228;48.800;9.002;2023-07-31T03:59:27;14.60;96.90
212;DHT22;16228;48.800;9.002;2023-07-31T04:01:54;14.60;96.90
212;DHT22;16228;48.800;9.002;2023-07-31T04:04:21;14.70;96.90
212;DHT22;16228;48.800;9.002;2023-07-31T04:06:48;14.80;96.90
212;DHT22;16228;48.800;9.002;2023-07-31T04:09:15;14.80;96.90
212;DHT22;16228;48.800;9.002;2023-07-31T04:11:42;14.90;96.90
212;DHT22;16228;48.800;9.002;2023-07-31T04:14:09;14.90;96.90
212;DHT22;16228;48.800;9.002;2023-07-31T04:16:37;15.00;96.90
212;DHT22;16228;48.800;9.002;2023-07-31T04:19:04;15.00;96.90
212;DHT22;16228;48.800;9.002;2023-07-31T04:21:31;15.00;96.90
212;DHT22;16228;48.800;9.002;2023-07-31T04:23:58;15.00;96.90
212;DHT22;16228;48.800;9.002;2023-07-31T04:26:25;15.10;96.90
212;DHT22;16228;48.800;9.002;2023-07-31T04:28:52;15.10;96.90
212;DHT22;16228;48.800;9.002;2023-07-31T04:31:19;15.10;96.90
212;DHT22;16228;48.800;9.002;2023-07-31T04:33:47;15.10;96.90
212;DHT22;16228;48.800;9.002;2023-07-31T04:36:14;15.20;96.90
212;DHT22;16228;48.800;9.002;2023-07-31T04:38:41;15.20;96.90
212;DHT22;16228;48.800;9.002;2023-07-31T04:41:08;15.30;96.90
212;DHT22;16228;48.800;9.002;2023-07-31T04:43:35;15.40;96.90
212;DHT22;16228;48.800;9.002;2023-07-31T04:46:04;15.40;96.90
212;DHT22;16228;48.800;9.002;2023-07-31T04:48:31;15.50;96.90
212;DHT22;16228;48.800;9.002;2023-07-31T04:51:00;15.60;96.90
212;DHT22;16228;48.800;9.002;2023-07-31T04:53:26;15.70;96.90
212;DHT22;16228;48.800;9.002;2023-07-31T04:55:53;15.80;96.90
212;DHT22;16228;48.800;9.002;2023-07-31T04:58:20;15.80;96.90
212;DHT22;16228;48.800;9.002;2023-07-31T05:00:47;15.80;96.90
212;DHT22;16228;48.800;9.002;2023-07-31T05:03:14;15.80;96.90
212;DHT22;16228;48.800;9.002;2023-07-31T05:05:41;15.90;96.90
212;DHT22;16228;48.800;9.002;2023-07-31T05:08:10;15.90;96.90
212;DHT22;16228;48.800;9.002;2023-07-31T05:10:37;16.00;96.90
212;DHT22;16228;48.800;9.002;2023-07-31T05:13:04;16.10;96.90
212;DHT22;16228;48.800;9.002;2023-07-31T05:15:31;16.10;96.90
212;DHT22;16228;48.800;9.002;2023-07-31T05:17:58;16.10;96.90
212;DHT22;16228;48.800;9.002;2023-07-31T05:20:25;16.20;96.90
212;DHT22;16228;48.800;9.002;2023-07-31T05:22:53;16.20;96.90
212;DHT22;16228;48.800;9.002;2023-07-31T05:25:21;16.20;96.90
212;DHT22;16228;48.800;9.002;2023-07-31T05:27:48;16.20;96.90
212;DHT22;16228;48.800;9.002;2023-07-31T05:30:15;16.30;96.90
212;DHT22;16228;48.800;9.002;2023-07-31T05:32:42;16.30;96.90
212;DHT22;16228;48.800;9.002;2023-07-31T05:35:09;16.40;96.90
212;DHT22;16228;48.800;9.002;2023-07-31T05:37:36;16.50;96.90
212;DHT22;16228;48.800;9.002;2023-07-31T05:40:04;16.60;96.90
212;DHT22;16228;48.800;9.002;2023-07-31T05:42:32;16.80;96.90
212;DHT22;16228;48.800;9.002;2023-07-31T05:45:00;16.90;96.90
212;DHT22;16228;48.800;9.002;2023-07-31T05:47:27;17.10;96.90
212;DHT22;16228;48.800;9.002;2023-07-31T05:49:54;17.30;96.90
212;DHT22;16228;48.800;9.002;2023-07-31T05:52:21;17.50;96.90
212;DHT22;16228;48.800;9.002;2023-07-31T05:54:48;17.60;96.90
212;DHT22;16228;48.800;9.002;2023-07-31T05:57:15;17.70;96.90
212;DHT22;16228;48.800;9.002;2023-07-31T05:59:43;17.90;96.90
212;DHT22;16228;48.800;9.002;2023-07-31T06:02:10;18.10;96.90
212;DHT22;16228;48.800;9.002;2023-07-31T06:04:37;18.30;96.90
212;DHT22;16228;48.800;9.002;2023-07-31T06:07:04;18.40;96.90
212;DHT22;16228;48.800;9.002;2023-07-31T06:09:31;18.50;96.90
212;DHT22;16228;48.800;9.002;2023-07-31T06:11:58;18.70;96.90
212;DHT22;16228;48.800;9.002;2023-07-31T06:14:25;18.90;96.90
212;DHT22;16228;48.800;9.002;2023-07-31T06:16:53;18.90;96.90
212;DHT22;16228;48.800;9.002;2023-07-31T06:19:20;19.00;96.90
212;DHT22;16228;48.800;9.002;2023-07-31T06:21:48;19.10;96.90
212;DHT22;16228;48.800;9.002;2023-07-31T06:24:15;19.10;96.90
212;DHT22;16228;48.800;9.002;2023-07-31T06:26:44;19.30;96.90
212;DHT22;16228;48.800;9.002;2023-07-31T06:29:11;19.80;96.90
212;DHT22;16228;48.800;9.002;2023-07-31T06:31:38;20.10;96.90
212;DHT22;16228;48.800;9.002;2023-07-31T06:34:06;20.20;96.90
212;DHT22;16228;48.800;9.002;2023-07-31T06:36:33;20.10;96.90
212;DHT22;16228;48.800;9.002;2023-07-31T06:39:00;20.20;96.90
212;DHT22;16228;48.800;9.002;2023-07-31T06:41:27;20.20;96.90
212;DHT22;16228;48.800;9.002;2023-07-31T06:43:54;20.20;96.90
212;DHT22;16228;48.800;9.002;2023-07-31T06:46:21;20.20;96.90
212;DHT22;16228;48.800;9.002;2023-07-31T06:48:48;20.40;96.90
212;DHT22;16228;48.800;9.002;2023-07-31T06:51:16;20.60;96.90
212;DHT22;16228;48.800;9.002;2023-07-31T06:53:43;20.80;96.90
212;DHT22;16228;48.800;9.002;2023-07-31T06:56:11;21.00;96.90
212;DHT22;16228;48.800;9.002;2023-07-31T06:58:38;20.90;96.90
212;DHT22;16228;48.800;9.002;2023-07-31T07:01:05;20.70;96.90
212;DHT22;16228;48.800;9.002;2023-07-31T07:03:32;20.70;96.90
212;DHT22;16228;48.800;9.002;2023-07-31T07:05:59;20.80;96.90
212;DHT22;16228;48.800;9.002;2023-07-31T07:08:28;21.10;96.90
212;DHT22;16228;48.800;9.002;2023-07-31T07:10:55;21.10;96.90
212;DHT22;16228;48.800;9.002;2023-07-31T07:13:22;21.40;96.90
212;DHT22;16228;48.800;9.002;2023-07-31T07:15:49;21.70;96.90
212;DHT22;16228;48.800;9.002;2023-07-31T07:18:16;21.90;95.90
212;DHT22;16228;48.800;9.002;2023-07-31T07:20:46;22.00;96.10
212;DHT22;16228;48.800;9.002;2023-07-31T07:23:14;21.90;96.90
212;DHT22;16228;48.800;9.002;2023-07-31T07:25:42;22.00;95.90
212;DHT22;16228;48.800;9.002;2023-07-31T07:28:09;22.00;96.30
212;DHT22;16228;48.800;9.002;2023-07-31T07:30:36;21.80;96.90
212;DHT22;16228;48.800;9.002;2023-07-31T07:33:03;21.40;96.40
212;DHT22;16228;48.800;9.002;2023-07-31T07:35:32;21.10;96.00
212;DHT22;16228;48.800;9.002;2023-07-31T07:37:59;20.90;96.90
212;DHT22;16228;48.800;9.002;2023-07-31T07:40:26;20.70;96.90
212;DHT22;16228;48.800;9.002;2023-07-31T07:42:54;20.70;96.90
212;DHT22;16228;48.800;9.002;2023-07-31T07:45:21;20.80;96.90
212;DHT22;16228;48.800;9.002;2023-07-31T07:47:48;21.20;96.90
212;DHT22;16228;48.800;9.002;2023-07-31T07:50:15;21.70;96.90
212;DHT22;16228;48.800;9.002;2023-07-31T07:52:42;22.60;94.20
212;DHT22;16228;48.800;9.002;2023-07-31T07:55:09;23.20;91.10
212;DHT22;16228;48.800;9.002;2023-07-31T07:57:36;23.70;90.60
212;DHT22;16228;48.800;9.002;2023-07-31T08:00:06;23.80;92.30
212;DHT22;16228;48.800;9.002;2023-07-31T08:02:33;23.70;92.10
212;DHT22;16228;48.800;9.002;2023-07-31T08:05:00;23.60;91.60
212;DHT22;16228;48.800;9.002;2023-07-31T08:07:27;23.50;92.50
212;DHT22;16228;48.800;9.002;2023-07-31T08:09:54;23.80;94.70
212;DHT22;16228;48.800;9.002;2023-07-31T08:12:21;24.90;92.30
212;DHT22;16228;48.800;9.002;2023-07-31T08:14:48;26.40;86.60
212;DHT22;16228;48.800;9.002;2023-07-31T08:17:16;27.50;83.80
212;DHT22;16228;48.800;9.002;2023-07-31T08:19:43;27.90;79.40
212;DHT22;16228;48.800;9.002;2023-07-31T08:22:11;27.80;79.70
212;DHT22;16228;48.800;9.002;2023-07-31T08:24:38;27.50;82.00
212;DHT22;16228;48.800;9.002;2023-07-31T08:27:06;26.90;81.30
212;DHT22;16228;48.800;9.002;2023-07-31T08:29:33;26.00;81.70
212;DHT22;16228;48.800;9.002;2023-07-31T08:32:00;25.00;84.20
212;DHT22;16228;48.800;9.002;2023-07-31T08:34:28;24.40;88.30
212;DHT22;16228;48.800;9.002;2023-07-31T08:36:55;23.60;87.70
212;DHT22;16228;48.800;9.002;2023-07-31T08:39:22;23.00;91.90
212;DHT22;16228;48.800;9.002;2023-07-31T08:41:50;22.60;91.70
212;DHT22;16228;48.800;9.002;2023-07-31T08:44:18;22.60;95.90
212;DHT22;16228;48.800;9.002;2023-07-31T08:46:46;22.50;94.60
212;DHT22;16228;48.800;9.002;2023-07-31T08:49:15;22.60;96.50
212;DHT22;16228;48.800;9.002;2023-07-31T08:51:46;22.70;94.10
212;DHT22;16228;48.800;9.002;2023-07-31T08:54:13;22.70;95.60
212;DHT22;16228;48.800;9.002;2023-07-31T08:56:40;23.20;93.90
212;DHT22;16228;48.800;9.002;2023-07-31T08:59:08;24.00;94.20
212;DHT22;16228;48.800;9.002;2023-07-31T09:01:43;25.00;86.20
212;DHT22;16228;48.800;9.002;2023-07-31T09:04:10;25.60;88.10
212;DHT22;16228;48.800;9.002;2023-07-31T09:06:39;25.70;84.90
212;DHT22;16228;48.800;9.002;2023-07-31T09:09:09;25.90;89.50
212;DHT22;16228;48.800;9.002;2023-07-31T09:11:36;26.70;87.90
212;DHT22;16228;48.800;9.002;2023-07-31T09:14:04;28.10;85.00
212;DHT22;16228;48.800;9.002;2023-07-31T09:16:34;28.70;81.50
212;DHT22;16228;48.800;9.002;2023-07-31T09:19:01;28.40;80.60
212;DHT22;16228;48.800;9.002;2023-07-31T09:21:29;27.90;83.30
212;DHT22;16228;48.800;9.002;2023-07-31T09:23:56;27.20;84.60
212;DHT22;16228;48.800;9.002;2023-07-31T09:26:31;26.40;82.00
212;DHT22;16228;48.800;9.002;2023-07-31T09:28:59;25.60;86.00
212;DHT22;16228;48.800;9.002;2023-07-31T09:31:33;25.20;88.50
212;DHT22;16228;48.800;9.002;2023-07-31T09:34:05;24.80;87.40
212;DHT22;16228;48.800;9.002;2023-07-31T09:36:32;24.20;87.50
212;DHT22;16228;48.800;9.002;2023-07-31T09:39:02;24.00;89.60
212;DHT22;16228;48.800;9.002;2023-07-31T09:41:31;24.70;87.50
212;DHT22;16228;48.800;9.002;2023-07-31T09:44:02;25.50;85.40
212;DHT22;16228;48.800;9.002;2023-07-31T09:46:30;26.80;87.00
212;DHT22;16228;48.800;9.002;2023-07-31T09:49:05;28.20;80.30
212;DHT22;16228;48.800;9.002;2023-07-31T09:51:32;28.50;79.80
212;DHT22;16228;48.800;9.002;2023-07-31T09:54:10;27.60;78.60
212;DHT22;16228;48.800;9.002;2023-07-31T09:56:42;27.20;79.90
212;DHT22;16228;48.800;9.002;2023-07-31T09:59:12;27.50;81.10
212;DHT22;16228;48.800;9.002;2023-07-31T10:01:40;27.90;81.20
212;DHT22;16228;48.800;9.002;2023-07-31T10:04:09;28.30;80.50
212;DHT22;16228;48.800;9.002;2023-07-31T10:06:37;28.40;79.80
212;DHT22;16228;48.800;9.002;2023-07-31T10:09:06;28.90;78.30
212;DHT22;16228;48.800;9.002;2023-07-31T10:11:38;29.60;74.60
212;DHT22;16228;48.800;9.002;2023-07-31T10:14:11;30.20;75.60
212;DHT22;16228;48.800;9.002;2023-07-31T10:16:39;29.90;76.20
212;DHT22;16228;48.800;9.002;2023-07-31T10:19:07;30.20;75.50
212;DHT22;16228;48.800;9.002;2023-07-31T10:21:36;30.50;78.00
212;DHT22;16228;48.800;9.002;2023-07-31T10:24:04;30.90;76.40
212;DHT22;16228;48.800;9.002;2023-07-31T10:26:31;32.10;78.10
212;DHT22;16228;48.800;9.002;2023-07-31T10:28:59;32.70;71.60
212;DHT22;16228;48.800;9.002;2023-07-31T10:31:28;33.70;70.60
212;DHT22;16228;48.800;9.002;2023-07-31T10:33:56;34.30;67.60
212;DHT22;16228;48.800;9.002;2023-07-31T10:36:24;34.50;72.20
212;DHT22;16228;48.800;9.002;2023-07-31T10:38:51;35.10;68.40
212;DHT22;16228;48.800;9.002;2023-07-31T10:41:18;35.60;66.00
212;DHT22;16228;48.800;9.002;2023-07-31T10:43:46;35.60;65.90
212;DHT22;16228;48.800;9.002;2023-07-31T10:46:13;35.90;66.40
212;DHT22;16228;48.800;9.002;2023-07-31T10:48:42;36.30;60.20
212;DHT22;16228;48.800;9.002;2023-07-31T10:51:10;36.60;61.20
212;DHT22;16228;48.800;9.002;2023-07-31T10:53:39;37.10;64.90
212;DHT22;16228;48.800;9.002;2023-07-31T10:56:08;36.90;59.70
212;DHT22;16228;48.800;9.002;2023-07-31T10:58:38;35.80;66.90
212;DHT22;16228;48.800;9.002;2023-07-31T11:01:06;34.30;61.30
212;DHT22;16228;48.800;9.002;2023-07-31T11:03:45;32.50;66.90
212;DHT22;16228;48.800;9.002;2023-07-31T11:06:14;31.50;70.00
212;DHT22;16228;48.800;9.002;2023-07-31T11:08:42;30.70;73.10
212;DHT22;16228;48.800;9.002;2023-07-31T11:11:11;30.40;76.30
212;DHT22;16228;48.800;9.002;2023-07-31T11:13:43;29.60;75.20
212;DHT22;16228;48.800;9.002;2023-07-31T11:16:12;28.50;74.20
212;DHT22;16228;48.800;9.002;2023-07-31T11:18:39;27.80;75.90
212;DHT22;16228;48.800;9.002;2023-07-31T11:21:09;27.40;80.50
212;DHT22;16228;48.800;9.002;2023-07-31T11:23:38;27.00;79.80
212;DHT22;16228;48.800;9.002;2023-07-31T11:26:06;26.50;80.90
212;DHT22;16228;48.800;9.002;2023-07-31T11:28:34;26.20;81.80
212;DHT22;16228;48.800;9.002;2023-07-31T11:31:01;25.80;82.30
212;DHT22;16228;48.800;9.002;2023-07-31T11:33:28;25.50;84.50
212;DHT22;16228;48.800;9.002;2023-07-31T11:35:56;25.20;85.40
212;DHT22;16228;48.800;9.002;2023-07-31T11:38:25;25.00;86.30
212;DHT22;16228;48.800;9.002;2023-07-31T11:40:53;24.80;85.50
212;DHT22;16228;48.800;9.002;2023-07-31T11:43:21;24.70;88.40
212;DHT22;16228;48.800;9.002;2023-07-31T11:45:49;24.70;87.70
212;DHT22;16228;48.800;9.002;2023-07-31T11:48:20;24.50;87.10
212;DHT22;16228;48.800;9.002;2023-07-31T11:50:49;24.60;87.30
212;DHT22;16228;48.800;9.002;2023-07-31T11:53:18;24.70;87.80
212;DHT22;16228;48.800;9.002;2023-07-31T11:55:47;24.80;89.20
212;DHT22;16228;48.800;9.002;2023-07-31T11:58:15;24.80;88.60
212;DHT22;16228;48.800;9.002;2023-07-31T12:00:42;24.80;85.00
212;DHT22;16228;48.800;9.002;2023-07-31T12:03:10;24.80;86.60
212;DHT22;16228;48.800;9.002;2023-07-31T12:05:37;25.10;86.00
212;DHT22;16228;48.800;9.002;2023-07-31T12:08:09;25.40;93.30
212;DHT22;16228;48.800;9.002;2023-07-31T12:10:37;25.60;89.60
212;DHT22;16228;48.800;9.002;2023-07-31T12:13:08;25.60;87.90
212;DHT22;16228;48.800;9.002;2023-07-31T12:15:40;25.70;90.00
212;DHT22;16228;48.800;9.002;2023-07-31T12:18:10;25.50;87.50
212;DHT22;16228;48.800;9.002;2023-07-31T12:20:42;25.30;86.20
212;DHT22;16228;48.800;9.002;2023-07-31T12:23:17;25.10;85.60
212;DHT22;16228;48.800;9.002;2023-07-31T12:25:44;25.00;85.90
212;DHT22;16228;48.800;9.002;2023-07-31T12:28:13;25.00;89.10
212;DHT22;16228;48.800;9.002;2023-07-31T12:30:40;24.90;85.00
212;DHT22;16228;48.800;9.002;2023-07-31T12:33:13;24.80;86.10
212;DHT22;16228;48.800;9.002;2023-07-31T12:35:45;24.70;84.10
212;DHT22;16228;48.800;9.002;2023-07-31T12:38:13;24.50;84.60
212;DHT22;16228;48.800;9.002;2023-07-31T12:40:41;24.20;87.90
212;DHT22;16228;48.800;9.002;2023-07-31T12:43:08;24.00;86.00
212;DHT22;16228;48.800;9.002;2023-07-31T12:45:37;23.90;89.70
212;DHT22;16228;48.800;9.002;2023-07-31T12:48:04;24.00;90.10
212;DHT22;16228;48.800;9.002;2023-07-31T12:50:31;24.00;87.10
212;DHT22;16228;48.800;9.002;2023-07-31T12:52:58;24.20;88.80
212;DHT22;16228;48.800;9.002;2023-07-31T12:55:25;24.30;88.50
212;DHT22;16228;48.800;9.002;2023-07-31T12:57:52;24.50;88.30
212;DHT22;16228;48.800;9.002;2023-07-31T13:00:19;24.80;88.90
212;DHT22;16228;48.800;9.002;2023-07-31T13:02:48;25.20;88.00
212;DHT22;16228;48.800;9.002;2023-07-31T13:05:15;25.60;87.60
212;DHT22;16228;48.800;9.002;2023-07-31T13:07:42;25.70;85.10
212;DHT22;16228;48.800;9.002;2023-07-31T13:10:09;25.80;84.30
212;DHT22;16228;48.800;9.002;2023-07-31T13:12:36;25.70;85.20
212;DHT22;16228;48.800;9.002;2023-07-31T13:15:03;25.60;84.60
212;DHT22;16228;48.800;9.002;2023-07-31T13:17:30;25.60;85.20
212;DHT22;16228;48.800;9.002;2023-07-31T13:19:59;25.70;84.40
212;DHT22;16228;48.800;9.002;2023-07-31T13:22:26;25.50;83.30
212;DHT22;16228;48.800;9.002;2023-07-31T13:24:53;25.50;86.20
212;DHT22;16228;48.800;9.002;2023-07-31T13:27:20;25.50;87.30
212;DHT22;16228;48.800;9.002;2023-07-31T13:29:47;25.50;84.10
212;DHT22;16228;48.800;9.002;2023-07-31T13:32:16;25.60;85.80
212;DHT22;16228;48.800;9.002;2023-07-31T13:34:43;25.70;86.60
212;DHT22;16228;48.800;9.002;2023-07-31T13:37:11;25.90;87.30
212;DHT22;16228;48.800;9.002;2023-07-31T13:39:39;25.90;87.30
212;DHT22;16228;48.800;9.002;2023-07-31T13:42:06;25.90;86.60
212;DHT22;16228;48.800;9.002;2023-07-31T13:44:34;25.70;84.40
212;DHT22;16228;48.800;9.002;2023-07-31T13:47:01;25.60;86.80
212;DHT22;16228;48.800;9.002;2023-07-31T13:49:28;25.40;88.10
212;DHT22;16228;48.800;9.002;2023-07-31T13:51:55;25.20;91.00
212;DHT22;16228;48.800;9.002;2023-07-31T13:54:24;25.10;89.20
212;DHT22;16228;48.800;9.002;2023-07-31T13:56:52;24.90;89.20
212;DHT22;16228;48.800;9.002;2023-07-31T13:59:19;24.80;88.40
212;DHT22;16228;48.800;9.002;2023-07-31T14:01:46;24.70;91.90
212;DHT22;16228;48.800;9.002;2023-07-31T14:04:13;24.60;89.10
212;DHT22;16228;48.800;9.002;2023-07-31T14:06:40;24.60;91.10
212;DHT22;16228;48.800;9.002;2023-07-31T14:09:07;24.60;94.30
212;DHT22;16228;48.800;9.002;2023-07-31T14:11:36;24.60;90.50
212;DHT22;16228;48.800;9.002;2023-07-31T14:14:03;24.80;96.90
212;DHT22;16228;48.800;9.002;2023-07-31T14:16:30;24.90;91.60
212;DHT22;16228;48.800;9.002;2023-07-31T14:18:57;25.10;87.90
212;DHT22;16228;48.800;9.002;2023-07-31T14:21:25;25.20;86.40
212;DHT22;16228;48.800;9.002;2023-07-31T14:23:52;25.40;86.80
212;DHT22;16228;48.800;9.002;2023-07-31T14:26:19;25.60;88.70
212;DHT22;16228;48.800;9.002;2023-07-31T14:28:48;25.80;89.80
212;DHT22;16228;48.800;9.002;2023-07-31T14:31:15;25.80;88.30
212;DHT22;16228;48.800;9.002;2023-07-31T14:33:41;25.70;88.20
212;DHT22;16228;48.800;9.002;2023-07-31T14:36:08;25.70;91.50
212;DHT22;16228;48.800;9.002;2023-07-31T14:38:35;25.60;87.00
212;DHT22;16228;48.800;9.002;2023-07-31T14:41:02;25.50;87.80
212;DHT22;16228;48.800;9.002;2023-07-31T14:43:29;25.50;91.40
212;DHT22;16228;48.800;9.002;2023-07-31T14:45:58;25.60;90.70
212;DHT22;16228;48.800;9.002;2023-07-31T14:48:25;25.50;88.30
212;DHT22;16228;48.800;9.002;2023-07-31T14:50:53;25.50;88.30
212;DHT22;16228;48.800;9.002;2023-07-31T14:53:21;25.30;88.00
212;DHT22;16228;48.800;9.002;2023-07-31T14:55:48;25.20;89.30
212;DHT22;16228;48.800;9.002;2023-07-31T14:58:15;25.00;88.80
212;DHT22;16228;48.800;9.002;2023-07-31T15:00:43;24.80;89.50
212;DHT22;16228;48.800;9.002;2023-07-31T15:03:11;24.70;89.30
212;DHT22;16228;48.800;9.002;2023-07-31T15:05:38;24.60;90.20
212;DHT22;16228;48.800;9.002;2023-07-31T15:08:05;24.50;89.60
212;DHT22;16228;48.800;9.002;2023-07-31T15:10:32;24.40;93.10
212;DHT22;16228;48.800;9.002;2023-07-31T15:12:59;24.30;91.20
212;DHT22;16228;48.800;9.002;2023-07-31T15:15:27;24.30;91.20
212;DHT22;16228;48.800;9.002;2023-07-31T15:17:54;24.50;88.70
212;DHT22;16228;48.800;9.002;2023-07-31T15:20:23;24.70;90.60
212;DHT22;16228;48.800;9.002;2023-07-31T15:22:50;24.90;88.10
212;DHT22;16228;48.800;9.002;2023-07-31T15:25:17;25.00;87.00
212;DHT22;16228;48.800;9.002;2023-07-31T15:27:44;24.90;89.40
212;DHT22;16228;48.800;9.002;2023-07-31T15:30:11;24.90;86.20
212;DHT22;16228;48.800;9.002;2023-07-31T15:32:38;24.90;89.00
212;DHT22;16228;48.800;9.002;2023-07-31T15:35:06;24.90;87.10
212;DHT22;16228;48.800;9.002;2023-07-31T15:37:35;24.80;88.20
212;DHT22;16228;48.800;9.002;2023-07-31T15:40:02;24.80;87.70
212;DHT22;16228;48.800;9.002;2023-07-31T15:42:29;24.80;86.40
212;DHT22;16228;48.800;9.002;2023-07-31T15:44:59;24.80;87.20
212;DHT22;16228;48.800;9.002;2023-07-31T15:47:26;24.90;89.50
212;DHT22;16228;48.800;9.002;2023-07-31T15:49:53;25.00;86.50
212;DHT22;16228;48.800;9.002;2023-07-31T15:52:20;24.90;88.50
212;DHT22;16228;48.800;9.002;2023-07-31T15:54:48;24.80;87.30
212;DHT22;16228;48.800;9.002;2023-07-31T15:57:15;24.80;86.50
212;DHT22;16228;48.800;9.002;2023-07-31T15:59:42;24.70;87.10
212;DHT22;16228;48.800;9.002;2023-07-31T16:02:09;24.70;89.20
212;DHT22;16228;48.800;9.002;2023-07-31T16:04:37;24.50;87.10